TimeCDT,TemperatureF,Dew PointF,Humidity,Sea Level PressureIn,VisibilityMPH,Wind Direction,Wind SpeedMPH,Gust SpeedMPH,PrecipitationIn,Events,Conditions,WindDirDegrees,DateUTC
12:52 AM,42.1,39.0,89,30.01,10.0,ENE,5.8,-,N/A,,Clear,60,2013-09-21 05:52:00
1:52 AM,41.0,39.0,93,30.01,10.0,ENE,5.8,-,N/A,,Clear,70,2013-09-21 06:52:00
2:52 AM,41.0,37.9,89,30.00,10.0,ENE,4.6,-,N/A,,Clear,60,2013-09-21 07:52:00
3:52 AM,37.0,36.0,96,29.99,10.0,East,5.8,-,N/A,,Clear,80,2013-09-21 08:52:00
4:52 AM,39.0,37.0,93,29.99,10.0,ENE,6.9,-,N/A,,Clear,60,2013-09-21 09:52:00
5:52 AM,37.9,36.0,93,29.98,10.0,ENE,6.9,-,N/A,,Clear,60,2013-09-21 10:52:00
6:52 AM,37.0,36.0,96,29.99,10.0,ENE,8.1,-,N/A,,Clear,60,2013-09-21 11:52:00
7:52 AM,37.9,36.0,93,29.98,10.0,ENE,6.9,-,N/A,,Clear,70,2013-09-21 12:52:00
8:52 AM,42.1,39.0,89,29.98,10.0,ENE,8.1,-,N/A,,Clear,60,2013-09-21 13:52:00
9:52 AM,48.9,44.1,83,29.97,10.0,East,6.9,-,N/A,,Clear,90,2013-09-21 14:52:00
10:52 AM,57.0,45.0,64,29.95,10.0,SE,10.4,-,N/A,,Clear,130,2013-09-21 15:52:00
11:52 AM,63.0,45.0,52,29.92,10.0,SE,12.7,-,N/A,,Clear,130,2013-09-21 16:52:00
12:52 PM,68.0,44.1,42,29.88,10.0,SSE,15.0,-,N/A,,Clear,150,2013-09-21 17:52:00
1:52 PM,70.0,42.1,36,29.85,10.0,SE,15.0,-,N/A,,Clear,130,2013-09-21 18:52:00
2:52 PM,72.0,44.1,37,29.83,10.0,SE,17.3,-,N/A,,Clear,130,2013-09-21 19:52:00
3:52 PM,73.0,43.0,34,29.80,10.0,SSE,19.6,-,N/A,,Clear,150,2013-09-21 20:52:00
4:52 PM,73.0,44.1,35,29.77,10.0,SSE,17.3,-,N/A,,Clear,150,2013-09-21 21:52:00
5:52 PM,72.0,45.0,38,29.76,10.0,SE,16.1,-,N/A,,Clear,140,2013-09-21 22:52:00
6:52 PM,68.0,45.0,43,29.76,10.0,SE,12.7,-,N/A,,Clear,130,2013-09-21 23:52:00
7:52 PM,62.1,46.0,56,29.76,10.0,East,10.4,-,N/A,,Clear,90,2013-09-22 00:52:00
8:52 PM,57.0,46.0,67,29.76,10.0,East,8.1,-,N/A,,Clear,90,2013-09-22 01:52:00
9:52 PM,54.0,46.0,75,29.76,10.0,East,9.2,-,N/A,,Clear,90,2013-09-22 02:52:00
10:52 PM,53.1,45.0,74,29.75,10.0,East,10.4,-,N/A,,Clear,90,2013-09-22 03:52:00
11:52 PM,52.0,44.1,74,29.73,10.0,ENE,9.2,-,N/A,,Clear,60,2013-09-22 04:52:00